KPPO

La Porte Municipal Airport

La Porte, Indiana, USA
METAR KPPO 231435Z AUTO 00000KT 10SM CLR 19/14 A3022 RMK AO2 T01900144
Observed Flight Rules
May-23 @ 14:35 UTC (24 minutes ago) Visual Flight Rules
Visibility Clouds
10 miles
  • Clear skies
Temperatures Readings
Current 19°C / 66°F
Dewpoint 14°C / 57°F
Humidity 73%
Altimeter 30.22" Hg
Pressure 1023 hPa
Elevation 248
METAR KPPO 231435Z AUTO 00000KT 10SM CLR 19/14 A3022 RMK AO2 T01900144
Observed Flight Rules
May-23 @ 14:35 UTC
(24 minutes ago)
VFR
Clouds
  • Clear skies
Temperature Dewpoint
19°C / 66°F 14°C / 57°F
Humidity Altimeter Pressure
73% 30.22" Hg 1023 hPa